createdAt,value
2019-02-19T00:00:47.387Z,8.63
2019-02-19T00:01:47.374Z,8.67
2019-02-19T00:02:47.364Z,8.64
2019-02-19T00:03:47.356Z,8.64
2019-02-19T00:04:47.378Z,8.67
2019-02-19T00:05:56.312Z,8.63
2019-02-19T00:06:47.360Z,8.66
2019-02-19T00:07:47.307Z,8.66
2019-02-19T00:08:47.302Z,8.63
2019-02-19T00:09:47.286Z,8.56
2019-02-19T00:10:47.274Z,8.58
2019-02-19T00:11:47.304Z,8.61
2019-02-19T00:12:47.251Z,8.49
2019-02-19T00:13:47.243Z,8.55
2019-02-19T00:14:47.230Z,8.52
2019-02-19T00:15:47.218Z,8.48
2019-02-19T00:16:47.210Z,8.48
2019-02-19T00:17:47.210Z,8.46
2019-02-19T00:18:47.185Z,8.46
2019-02-19T00:19:47.172Z,8.45
2019-02-19T00:20:47.160Z,8.45
2019-02-19T00:21:47.155Z,8.46
2019-02-19T00:22:47.150Z,8.45
2019-02-19T00:23:47.140Z,8.36
2019-02-19T00:24:47.119Z,8.44
2019-02-19T00:25:47.110Z,8.33
2019-02-19T00:26:47.094Z,8.37
2019-02-19T00:27:47.082Z,8.31
2019-02-19T00:28:47.115Z,8.37
2019-02-19T00:29:47.063Z,8.33
2019-02-19T00:30:47.049Z,8.36
2019-02-19T00:31:47.039Z,8.28
2019-02-19T00:32:47.047Z,8.31
2019-02-19T00:33:47.023Z,8.31
2019-02-19T00:34:47.024Z,8.38
2019-02-19T00:35:46.993Z,8.37
2019-02-19T00:36:46.992Z,8.37
2019-02-19T00:37:46.973Z,8.42
2019-02-19T00:38:46.972Z,8.37
2019-02-19T00:39:46.962Z,8.26
2019-02-19T00:40:46.958Z,8.38
2019-02-19T00:41:46.926Z,8.23
2019-02-19T00:42:46.915Z,8.16
2019-02-19T00:43:46.903Z,8.19
2019-02-19T00:44:46.894Z,8.23
2019-02-19T00:45:46.912Z,8.28
2019-02-19T00:46:46.878Z,8.24
2019-02-19T00:47:46.858Z,8.23
2019-02-19T00:48:46.847Z,8.19
2019-02-19T00:49:46.841Z,8.30
2019-02-19T00:50:46.827Z,8.19
2019-02-19T00:51:46.841Z,8.20
2019-02-19T00:52:46.833Z,8.26
2019-02-19T00:53:46.806Z,8.15
2019-02-19T00:54:46.781Z,8.24
2019-02-19T00:55:46.770Z,8.23
2019-02-19T00:56:46.758Z,8.23
2019-02-19T00:57:46.756Z,8.23
2019-02-19T00:58:46.742Z,8.27
2019-02-19T00:59:46.723Z,8.23
2019-02-19T01:00:46.715Z,8.10
2019-02-19T01:01:46.703Z,8.12
2019-02-19T01:02:46.711Z,8.16
2019-02-19T01:03:46.681Z,8.12
2019-02-19T01:04:46.692Z,8.18
2019-02-19T01:05:46.657Z,8.13
2019-02-19T01:06:46.644Z,8.18
2019-02-19T01:07:46.638Z,8.23
2019-02-19T01:08:46.655Z,8.13
2019-02-19T01:09:46.611Z,8.19
2019-02-19T01:10:46.616Z,8.12
2019-02-19T01:11:46.590Z,8.12
2019-02-19T01:12:46.578Z,8.23
2019-02-19T01:13:46.580Z,8.13
2019-02-19T01:14:46.572Z,8.12
2019-02-19T01:15:46.545Z,8.20
2019-02-19T01:16:46.565Z,8.19
2019-02-19T01:17:46.522Z,8.19
2019-02-19T01:18:46.511Z,8.30
2019-02-19T01:19:46.501Z,8.26
2019-02-19T01:20:46.503Z,8.23
2019-02-19T01:21:46.493Z,8.33
2019-02-19T01:22:46.504Z,8.28
2019-02-19T01:23:46.456Z,8.38
2019-02-19T01:24:46.456Z,8.37
2019-02-19T01:25:46.432Z,8.45
2019-02-19T01:26:46.430Z,8.34
2019-02-19T01:27:46.414Z,8.36
2019-02-19T01:28:46.405Z,8.45
2019-02-19T01:29:46.388Z,8.45
2019-02-19T01:30:46.375Z,8.48
2019-02-19T01:31:46.379Z,8.49
2019-02-19T01:32:46.354Z,8.46
2019-02-19T01:33:46.366Z,8.48
2019-02-19T01:34:46.334Z,8.46
2019-02-19T01:35:46.322Z,8.42
2019-02-19T01:36:46.339Z,8.45
2019-02-19T01:37:46.309Z,8.46
2019-02-19T01:38:46.286Z,8.46
2019-02-19T01:39:47.860Z,8.46
2019-02-19T01:40:46.262Z,8.46
2019-02-19T01:41:46.251Z,8.46
2019-02-19T01:42:46.242Z,8.46
2019-02-19T01:43:46.244Z,8.42
2019-02-19T01:44:46.235Z,8.48
2019-02-19T01:45:46.214Z,8.45
2019-02-19T01:46:46.195Z,8.48
2019-02-19T01:47:46.189Z,8.46
2019-02-19T01:48:46.173Z,8.44
2019-02-19T01:49:46.161Z,8.42
2019-02-19T01:50:46.160Z,8.44
2019-02-19T01:51:46.150Z,8.44
2019-02-19T01:52:46.131Z,8.31
2019-02-19T01:53:46.116Z,8.41
2019-02-19T01:54:46.124Z,8.38
2019-02-19T01:55:46.098Z,8.37
2019-02-19T01:56:46.082Z,8.36
2019-02-19T01:57:46.087Z,8.45
2019-02-19T01:58:46.061Z,8.42
2019-02-19T01:59:46.048Z,8.44
2019-02-19T02:00:46.052Z,8.45
2019-02-19T02:01:46.027Z,8.30
2019-02-19T02:02:46.069Z,8.38
2019-02-19T02:03:46.005Z,8.31
2019-02-19T02:04:46.025Z,8.38
2019-02-19T02:05:46.017Z,8.31
2019-02-19T02:06:46.016Z,8.34
2019-02-19T02:07:45.967Z,8.33
2019-02-19T02:08:45.974Z,8.49
2019-02-19T02:09:45.941Z,8.48
2019-02-19T02:10:45.925Z,8.42
2019-02-19T02:11:45.931Z,8.46
2019-02-19T02:12:45.908Z,8.51
2019-02-19T02:13:45.891Z,8.44
2019-02-19T02:14:45.879Z,8.45
2019-02-19T02:15:45.872Z,8.37
2019-02-19T02:16:45.857Z,8.36
2019-02-19T02:17:45.858Z,8.31
2019-02-19T02:18:45.842Z,8.24
2019-02-19T02:19:45.838Z,8.34
2019-02-19T02:20:45.812Z,8.31
2019-02-19T02:21:45.801Z,8.28
2019-02-19T02:22:45.793Z,8.34
2019-02-19T02:23:45.789Z,8.34
2019-02-19T02:24:45.798Z,8.33
2019-02-19T02:25:45.757Z,8.26
2019-02-19T02:26:45.746Z,8.31
2019-02-19T02:27:45.746Z,8.36
2019-02-19T02:28:45.722Z,8.27
2019-02-19T02:29:45.711Z,8.37
2019-02-19T02:30:45.709Z,8.27
2019-02-19T02:31:45.694Z,8.26
2019-02-19T02:32:45.681Z,8.28
2019-02-19T02:33:45.709Z,8.18
2019-02-19T02:34:45.662Z,8.15
2019-02-19T02:35:45.645Z,8.18
2019-02-19T02:36:45.653Z,8.19
2019-02-19T02:37:45.626Z,8.16
2019-02-19T02:38:45.615Z,8.18
2019-02-19T02:39:45.621Z,8.16
2019-02-19T02:40:45.591Z,8.19
2019-02-19T02:41:45.590Z,8.19
2019-02-19T02:42:45.569Z,8.16
2019-02-19T02:43:45.563Z,8.13
2019-02-19T02:44:45.546Z,8.13
2019-02-19T02:45:52.665Z,8.09
2019-02-19T02:46:46.548Z,8.03
2019-02-19T02:47:45.518Z,8.05
2019-02-19T02:48:45.543Z,8.06
2019-02-19T02:49:45.528Z,8.08
2019-02-19T02:50:45.513Z,8.05
2019-02-19T02:51:45.466Z,8.05
2019-02-19T02:52:45.492Z,8.03
2019-02-19T02:53:45.479Z,8.06
2019-02-19T02:54:45.457Z,8.01
2019-02-19T02:55:45.424Z,7.98
2019-02-19T02:56:45.430Z,7.98
2019-02-19T02:57:45.404Z,7.98
2019-02-19T02:58:45.407Z,7.97
2019-02-19T02:59:45.375Z,7.93
2019-02-19T03:00:45.390Z,7.93
2019-02-19T03:01:45.388Z,7.91
2019-02-19T03:02:45.382Z,7.90
2019-02-19T03:03:45.333Z,7.90
2019-02-19T03:04:45.331Z,7.85
2019-02-19T03:05:45.317Z,7.77
2019-02-19T03:06:45.324Z,7.80
2019-02-19T03:07:45.283Z,7.79
2019-02-19T03:08:45.323Z,7.80
2019-02-19T03:09:45.281Z,7.82
2019-02-19T03:10:45.290Z,7.73
2019-02-19T03:11:45.242Z,7.70
2019-02-19T03:12:45.252Z,7.61
2019-02-19T03:13:45.257Z,7.53
2019-02-19T03:14:45.208Z,7.66
2019-02-19T03:15:45.200Z,7.61
2019-02-19T03:16:45.209Z,7.66
2019-02-19T03:17:45.211Z,7.63
2019-02-19T03:18:45.174Z,7.60
2019-02-19T03:19:45.175Z,7.54
2019-02-19T03:20:45.146Z,7.72
2019-02-19T03:21:45.147Z,7.72
2019-02-19T03:22:45.139Z,7.53
2019-02-19T03:23:45.108Z,7.60
2019-02-19T03:24:45.108Z,7.54
2019-02-19T03:25:45.114Z,7.53
2019-02-19T03:26:45.073Z,7.51
2019-02-19T03:27:45.063Z,7.61
2019-02-19T03:28:45.051Z,7.53
2019-02-19T03:29:45.037Z,7.53
2019-02-19T03:30:45.032Z,7.50
2019-02-19T03:31:45.024Z,7.51
2019-02-19T03:32:45.025Z,7.48
2019-02-19T03:33:45.004Z,7.47
2019-02-19T03:34:44.985Z,7.50
2019-02-19T03:35:44.968Z,7.50
2019-02-19T03:36:44.971Z,7.47
2019-02-19T03:37:44.957Z,7.45
2019-02-19T03:38:44.956Z,7.47
2019-02-19T03:39:44.958Z,7.45
2019-02-19T03:40:44.950Z,7.47
2019-02-19T03:41:44.918Z,7.51
2019-02-19T03:42:44.930Z,7.43
2019-02-19T03:43:44.902Z,7.51
2019-02-19T03:44:44.888Z,7.51
2019-02-19T03:45:44.875Z,7.48
2019-02-19T03:46:44.899Z,7.43
2019-02-19T03:47:44.892Z,7.51
2019-02-19T03:48:44.862Z,7.53
2019-02-19T03:49:44.820Z,7.43
2019-02-19T03:50:44.825Z,7.40
2019-02-19T03:51:44.816Z,7.43
2019-02-19T03:52:44.783Z,7.54
2019-02-19T03:53:44.770Z,7.38
2019-02-19T03:54:44.801Z,7.39
2019-02-19T03:55:44.778Z,7.38
2019-02-19T03:56:44.755Z,7.40
2019-02-19T03:57:44.726Z,7.47
2019-02-19T03:58:44.727Z,7.39
2019-02-19T03:59:44.704Z,7.40
2019-02-19T04:00:44.752Z,7.43
2019-02-19T04:01:44.722Z,7.38
2019-02-19T04:02:44.683Z,7.47
2019-02-19T04:03:44.656Z,7.40
2019-02-19T04:04:44.654Z,7.40
2019-02-19T04:05:44.667Z,7.50
2019-02-19T04:06:44.641Z,7.36
2019-02-19T04:07:44.611Z,7.40
2019-02-19T04:08:44.611Z,7.43
2019-02-19T04:09:44.589Z,7.40
2019-02-19T04:10:44.578Z,7.38
2019-02-19T04:11:44.645Z,7.33
2019-02-19T04:12:44.574Z,7.42
2019-02-19T04:13:44.574Z,7.36
2019-02-19T04:14:44.538Z,7.35
2019-02-19T04:15:44.526Z,7.33
2019-02-19T04:16:44.561Z,7.29
2019-02-19T04:17:44.514Z,7.28
2019-02-19T04:18:44.491Z,7.33
2019-02-19T04:19:44.522Z,7.38
2019-02-19T04:20:44.460Z,7.38
2019-02-19T04:21:44.469Z,7.28
2019-02-19T04:22:44.441Z,7.35
2019-02-19T04:23:44.431Z,7.31
2019-02-19T04:24:44.440Z,7.35
2019-02-19T04:25:44.405Z,7.33
2019-02-19T04:26:44.392Z,7.32
2019-02-19T04:27:44.382Z,7.36
2019-02-19T04:28:44.370Z,7.45
2019-02-19T04:29:44.364Z,7.35
2019-02-19T04:30:44.368Z,7.42
2019-02-19T04:31:44.336Z,7.40
2019-02-19T04:32:44.326Z,7.32
2019-02-19T04:33:44.314Z,7.38
2019-02-19T04:34:44.302Z,7.28
2019-02-19T04:35:44.319Z,7.38
2019-02-19T04:36:44.318Z,7.31
2019-02-19T04:37:44.270Z,7.32
2019-02-19T04:38:44.268Z,7.36
2019-02-19T04:39:44.247Z,7.32
2019-02-19T04:40:44.237Z,7.33
2019-02-19T04:41:44.240Z,7.32
2019-02-19T04:42:44.256Z,7.33
2019-02-19T04:43:44.217Z,7.33
2019-02-19T04:44:44.198Z,7.29
2019-02-19T04:45:44.197Z,7.36
2019-02-19T04:46:44.168Z,7.28
2019-02-19T04:47:44.169Z,7.38
2019-02-19T04:48:44.192Z,7.38
2019-02-19T04:49:44.134Z,7.32
2019-02-19T04:50:44.124Z,7.33
2019-02-19T04:51:44.113Z,7.32
2019-02-19T04:52:44.124Z,7.39
2019-02-19T04:53:44.090Z,7.32
2019-02-19T04:54:44.085Z,7.28
2019-02-19T04:55:44.133Z,7.39
2019-02-19T04:56:44.093Z,7.35
2019-02-19T04:57:44.045Z,7.29
2019-02-19T04:58:44.056Z,7.36
2019-02-19T04:59:44.023Z,7.39
2019-02-19T05:00:44.011Z,7.32
2019-02-19T05:01:44.014Z,7.39
2019-02-19T05:02:43.988Z,7.28
2019-02-19T05:03:43.991Z,7.38
2019-02-19T05:04:43.971Z,7.35
2019-02-19T05:05:43.982Z,7.32
2019-02-19T05:06:43.957Z,7.32
2019-02-19T05:07:43.933Z,7.35
2019-02-19T05:08:44.597Z,7.33
2019-02-19T05:09:43.911Z,7.28
2019-02-19T05:10:43.899Z,7.32
2019-02-19T05:11:43.897Z,7.39
2019-02-19T05:12:43.896Z,7.35
2019-02-19T05:13:43.865Z,7.32
2019-02-19T05:14:43.853Z,7.31
2019-02-19T05:15:43.892Z,7.32
2019-02-19T05:16:43.832Z,7.38
2019-02-19T05:17:43.837Z,7.38
2019-02-19T05:18:43.820Z,7.40
2019-02-19T05:19:43.799Z,7.32
2019-02-19T05:20:43.786Z,7.45
2019-02-19T05:21:43.776Z,7.32
2019-02-19T05:22:43.762Z,7.36
2019-02-19T05:23:43.770Z,7.32
2019-02-19T05:24:43.750Z,7.32
2019-02-19T05:25:43.743Z,7.38
2019-02-19T05:26:43.721Z,7.32
2019-02-19T05:27:43.712Z,7.36
2019-02-19T05:28:43.704Z,7.38
2019-02-19T05:29:43.700Z,7.38
2019-02-19T05:30:43.704Z,7.24
2019-02-19T05:31:43.662Z,7.33
2019-02-19T05:32:43.663Z,7.29
2019-02-19T05:33:43.641Z,7.21
2019-02-19T05:34:43.628Z,7.39
2019-02-19T05:35:43.628Z,7.25
2019-02-19T05:36:43.635Z,7.32
2019-02-19T05:37:43.593Z,7.25
2019-02-19T05:38:43.586Z,7.29
2019-02-19T05:39:43.588Z,7.29
2019-02-19T05:40:43.610Z,7.29
2019-02-19T05:41:43.571Z,7.28
2019-02-19T05:42:43.557Z,7.28
2019-02-19T05:43:43.532Z,7.25
2019-02-19T05:44:43.534Z,7.20
2019-02-19T05:45:43.546Z,7.24
2019-02-19T05:46:49.733Z,7.25
2019-02-19T05:47:44.514Z,7.24
2019-02-19T05:48:43.478Z,7.31
2019-02-19T05:49:43.548Z,7.23
2019-02-19T05:50:43.460Z,7.32
2019-02-19T05:51:43.443Z,7.21
2019-02-19T05:52:43.440Z,7.25
2019-02-19T05:53:44.857Z,7.21
2019-02-19T05:54:43.411Z,7.29
2019-02-19T05:55:43.410Z,7.15
2019-02-19T05:56:43.394Z,7.17
2019-02-19T05:57:43.375Z,7.18
2019-02-19T05:58:43.368Z,7.14
2019-02-19T05:59:43.354Z,7.13
2019-02-19T06:00:43.401Z,7.17
2019-02-19T06:01:43.363Z,7.14
2019-02-19T06:02:43.348Z,7.14
2019-02-19T06:03:43.315Z,7.07
2019-02-19T06:04:43.299Z,7.18
2019-02-19T06:05:43.318Z,7.15
2019-02-19T06:06:43.302Z,7.13
2019-02-19T06:07:43.272Z,7.15
2019-02-19T06:08:43.255Z,7.02
2019-02-19T06:09:43.241Z,7.05
2019-02-19T06:10:44.187Z,7.03
2019-02-19T06:11:43.231Z,7.07
2019-02-19T06:12:43.250Z,7.07
2019-02-19T06:13:43.197Z,7.11
2019-02-19T06:14:43.203Z,7.07
2019-02-19T06:15:43.171Z,7.05
2019-02-19T06:16:43.167Z,7.02
2019-02-19T06:17:43.177Z,7.06
2019-02-19T06:18:43.162Z,7.02
2019-02-19T06:19:43.130Z,7.05
2019-02-19T06:20:43.115Z,7.17
2019-02-19T06:21:43.103Z,7.23
2019-02-19T06:22:43.098Z,7.21
2019-02-19T06:23:43.083Z,7.31
2019-02-19T06:24:43.106Z,7.24
2019-02-19T06:25:43.060Z,7.13
2019-02-19T06:26:43.054Z,7.20
2019-02-19T06:27:43.047Z,7.17
2019-02-19T06:28:43.042Z,7.17
2019-02-19T06:29:43.030Z,7.23
2019-02-19T06:30:43.024Z,7.15
2019-02-19T06:31:42.992Z,7.17
2019-02-19T06:32:42.979Z,7.15
2019-02-19T06:33:42.966Z,7.21
2019-02-19T06:34:42.974Z,7.17
2019-02-19T06:35:43.026Z,7.24
2019-02-19T06:36:42.941Z,7.23
2019-02-19T06:37:42.951Z,7.17
2019-02-19T06:38:42.910Z,7.18
2019-02-19T06:39:42.897Z,7.21
2019-02-19T06:40:42.891Z,7.15
2019-02-19T06:41:42.896Z,7.21
2019-02-19T06:42:42.865Z,7.18
2019-02-19T06:43:42.859Z,7.15
2019-02-19T06:44:42.871Z,7.20
2019-02-19T06:45:42.835Z,7.17
2019-02-19T06:46:42.820Z,7.15
2019-02-19T06:47:42.826Z,7.21
2019-02-19T06:48:42.801Z,7.20
2019-02-19T06:49:42.836Z,7.24
2019-02-19T06:50:42.779Z,7.25
2019-02-19T06:51:42.770Z,7.24
2019-02-19T06:52:42.754Z,7.25
2019-02-19T06:53:42.764Z,7.14
2019-02-19T06:54:42.735Z,7.21
2019-02-19T06:55:42.722Z,7.13
2019-02-19T06:56:42.745Z,7.21
2019-02-19T06:57:42.699Z,7.25
2019-02-19T06:58:42.695Z,7.24
2019-02-19T06:59:42.684Z,7.24
2019-02-19T07:00:42.667Z,7.18
2019-02-19T07:01:42.653Z,7.13
2019-02-19T07:02:42.638Z,7.11
2019-02-19T07:03:42.681Z,7.13
2019-02-19T07:04:42.643Z,7.23
2019-02-19T07:05:42.608Z,7.17
2019-02-19T07:06:42.596Z,7.20
2019-02-19T07:07:42.587Z,7.18
2019-02-19T07:08:42.576Z,7.13
2019-02-19T07:09:42.604Z,7.15
2019-02-19T07:10:42.566Z,7.07
2019-02-19T07:11:42.541Z,7.07
2019-02-19T07:12:42.580Z,7.05
2019-02-19T07:13:42.548Z,7.11
2019-02-19T07:14:42.503Z,7.02
2019-02-19T07:15:42.515Z,7.00
2019-02-19T07:16:42.491Z,7.05
2019-02-19T07:17:42.482Z,7.02
2019-02-19T07:18:42.469Z,7.11
2019-02-19T07:19:42.451Z,7.07
2019-02-19T07:20:42.443Z,7.13
2019-02-19T07:21:42.460Z,7.15
2019-02-19T07:22:42.428Z,7.11
2019-02-19T07:23:42.403Z,7.13
2019-02-19T07:24:42.392Z,7.10
2019-02-19T07:25:42.426Z,7.11
2019-02-19T07:26:42.379Z,7.10
2019-02-19T07:27:42.362Z,7.11
2019-02-19T07:28:42.395Z,7.20
2019-02-19T07:29:42.342Z,7.06
2019-02-19T07:30:42.328Z,7.11
2019-02-19T07:31:42.328Z,7.15
2019-02-19T07:32:42.304Z,7.03
2019-02-19T07:33:42.316Z,7.02
2019-02-19T07:34:42.281Z,7.07
2019-02-19T07:35:42.272Z,7.07
2019-02-19T07:36:42.287Z,7.07
2019-02-19T07:37:42.252Z,7.06
2019-02-19T07:38:42.243Z,7.02
2019-02-19T07:39:42.253Z,7.00
2019-02-19T07:40:42.215Z,7.00
2019-02-19T07:41:42.204Z,7.03
2019-02-19T07:42:42.190Z,7.00
2019-02-19T07:43:42.202Z,6.96
2019-02-19T07:44:42.167Z,6.97
2019-02-19T07:45:42.175Z,6.95
2019-02-19T07:46:42.146Z,7.07
2019-02-19T07:47:42.134Z,7.02
2019-02-19T07:48:42.121Z,6.97
2019-02-19T07:49:42.175Z,7.07
2019-02-19T07:50:42.100Z,7.00
2019-02-19T07:51:42.755Z,7.02
2019-02-19T07:52:42.077Z,6.97
2019-02-19T07:53:42.073Z,6.97
2019-02-19T07:54:42.059Z,6.95
2019-02-19T07:55:42.078Z,7.03
2019-02-19T07:56:42.072Z,6.92
2019-02-19T07:57:42.930Z,6.99
2019-02-19T07:58:42.015Z,6.99
2019-02-19T07:59:42.000Z,6.97
2019-02-19T08:00:41.996Z,7.03
2019-02-19T08:01:42.018Z,6.97
2019-02-19T08:02:41.976Z,7.00
2019-02-19T08:03:41.957Z,7.05
2019-02-19T08:04:41.945Z,7.03
2019-02-19T08:05:41.933Z,7.07
2019-02-19T08:06:41.931Z,7.13
2019-02-19T08:07:41.944Z,7.14
2019-02-19T08:08:41.900Z,7.20
2019-02-19T08:09:41.889Z,7.11
2019-02-19T08:10:41.876Z,7.06
2019-02-19T08:11:41.869Z,7.21
2019-02-19T08:12:41.856Z,7.14
2019-02-19T08:13:41.874Z,7.21
2019-02-19T08:14:41.838Z,7.25
2019-02-19T08:15:41.820Z,7.32
2019-02-19T08:16:41.813Z,7.28
2019-02-19T08:17:41.803Z,7.32
2019-02-19T08:18:41.793Z,7.25
2019-02-19T08:19:41.806Z,7.32
2019-02-19T08:20:41.771Z,7.28
2019-02-19T08:21:41.756Z,7.28
2019-02-19T08:22:41.742Z,7.14
2019-02-19T08:23:41.733Z,7.18
2019-02-19T08:24:41.722Z,7.38
2019-02-19T08:25:41.752Z,7.47
2019-02-19T08:26:41.697Z,7.54
2019-02-19T08:27:41.686Z,7.82
2019-02-19T08:28:41.676Z,7.85
2019-02-19T08:29:41.665Z,7.80
2019-02-19T08:30:41.655Z,7.83
2019-02-19T08:31:41.680Z,7.82
2019-02-19T08:32:41.630Z,7.94
2019-02-19T08:33:41.629Z,8.37
2019-02-19T08:34:41.609Z,8.41
2019-02-19T08:35:41.603Z,8.28
2019-02-19T08:36:41.585Z,8.30
2019-02-19T08:37:41.622Z,8.58
2019-02-19T08:38:42.997Z,8.44
2019-02-19T08:39:41.560Z,8.42
2019-02-19T08:40:41.542Z,8.64
2019-02-19T08:41:41.529Z,8.58
2019-02-19T08:42:41.532Z,8.70
2019-02-19T08:43:41.528Z,8.56
2019-02-19T08:44:41.523Z,8.61
2019-02-19T08:45:41.483Z,8.69
2019-02-19T08:46:41.471Z,8.71
2019-02-19T08:47:42.938Z,8.78
2019-02-19T08:48:41.480Z,8.82
2019-02-19T08:49:41.456Z,8.55
2019-02-19T08:50:41.442Z,8.41
2019-02-19T08:51:41.425Z,8.18
2019-02-19T08:52:41.407Z,8.24
2019-02-19T08:53:41.396Z,8.20
2019-02-19T08:54:41.381Z,8.36
2019-02-19T08:55:41.383Z,8.48
2019-02-19T08:56:41.390Z,8.48
2019-02-19T08:57:41.348Z,8.58
2019-02-19T08:58:41.336Z,8.46
2019-02-19T08:59:41.324Z,8.49
2019-02-19T09:00:41.312Z,8.37
2019-02-19T09:01:50.469Z,8.45
2019-02-19T09:02:41.294Z,8.49
2019-02-19T09:03:48.907Z,8.49
2019-02-19T09:04:49.001Z,8.38
2019-02-19T09:05:48.967Z,8.42
2019-02-19T09:06:48.965Z,8.58
2019-02-19T09:07:41.288Z,8.63
2019-02-19T09:08:48.402Z,8.66
2019-02-19T09:09:48.943Z,8.58
2019-02-19T09:10:41.214Z,8.58
2019-02-19T09:11:48.376Z,8.67
2019-02-19T09:12:41.234Z,8.63
2019-02-19T09:13:41.170Z,8.69
2019-02-19T09:14:41.211Z,8.79
2019-02-19T09:15:41.150Z,8.94
2019-02-19T09:16:41.135Z,8.82
2019-02-19T09:17:41.199Z,8.82
2019-02-19T09:18:41.206Z,8.79
2019-02-19T09:19:41.241Z,8.64
2019-02-19T09:20:41.100Z,8.52
2019-02-19T09:21:41.114Z,8.49
2019-02-19T09:22:41.115Z,8.56
2019-02-19T09:23:42.315Z,8.60
2019-02-19T09:24:41.046Z,8.71
2019-02-19T09:25:41.068Z,8.70
2019-02-19T09:26:41.027Z,8.67
2019-02-19T09:27:41.025Z,8.81
2019-02-19T09:28:41.001Z,8.76
2019-02-19T09:29:40.990Z,8.81
2019-02-19T09:30:41.010Z,8.89
2019-02-19T09:31:40.980Z,9.02
2019-02-19T09:32:40.959Z,9.13
2019-02-19T09:33:40.958Z,9.04
2019-02-19T09:34:40.938Z,9.08
2019-02-19T09:35:40.923Z,8.99
2019-02-19T09:36:40.950Z,8.91
2019-02-19T09:37:40.903Z,8.88
2019-02-19T09:38:40.902Z,8.87
2019-02-19T09:39:40.891Z,8.95
2019-02-19T09:40:40.868Z,8.94
2019-02-19T09:41:40.857Z,9.10
2019-02-19T09:42:40.876Z,9.02
2019-02-19T09:43:40.834Z,9.11
2019-02-19T09:44:40.839Z,9.21
2019-02-19T09:45:40.811Z,9.31
2019-02-19T09:46:40.801Z,9.41
2019-02-19T09:47:40.794Z,9.37
2019-02-19T09:48:40.817Z,9.37
2019-02-19T09:49:40.768Z,9.47
2019-02-19T09:50:40.766Z,9.29
2019-02-19T09:51:40.758Z,9.18
2019-02-19T09:52:40.747Z,9.03
2019-02-19T09:53:40.743Z,8.91
2019-02-19T09:54:40.741Z,8.79
2019-02-19T09:55:40.705Z,8.76
2019-02-19T09:56:40.689Z,8.70
2019-02-19T09:57:40.745Z,8.76
2019-02-19T09:58:40.667Z,8.69
2019-02-19T09:59:40.659Z,8.64
2019-02-19T10:00:40.685Z,8.64
2019-02-19T10:01:40.635Z,8.71
2019-02-19T10:02:40.623Z,8.73
2019-02-19T10:03:40.627Z,8.79
2019-02-19T10:04:40.601Z,9.03
2019-02-19T10:05:40.589Z,9.32
2019-02-19T10:06:40.608Z,9.39
2019-02-19T10:07:40.582Z,9.54
2019-02-19T10:08:40.578Z,9.62
2019-02-19T10:09:40.544Z,9.59
2019-02-19T10:10:40.545Z,9.50
2019-02-19T10:11:40.521Z,9.65
2019-02-19T10:12:40.539Z,9.82
2019-02-19T10:13:40.500Z,9.91
2019-02-19T10:14:40.507Z,9.68
2019-02-19T10:15:40.478Z,9.56
2019-02-19T10:16:41.829Z,9.47
2019-02-19T10:17:40.464Z,9.55
2019-02-19T10:18:40.460Z,9.69
2019-02-19T10:19:40.457Z,9.80
2019-02-19T10:20:40.422Z,10.07
2019-02-19T10:21:40.414Z,10.12
2019-02-19T10:22:40.403Z,10.19
2019-02-19T10:23:40.389Z,10.15
2019-02-19T10:24:40.408Z,10.20
2019-02-19T10:25:40.381Z,10.16
2019-02-19T10:26:40.802Z,10.17
2019-02-19T10:27:40.344Z,10.16
2019-02-19T10:28:40.334Z,10.23
2019-02-19T10:29:40.322Z,10.34
2019-02-19T10:30:40.354Z,10.09
2019-02-19T10:31:40.316Z,9.98
2019-02-19T10:32:40.289Z,9.86
2019-02-19T10:33:40.277Z,9.73
2019-02-19T10:34:40.266Z,9.58
2019-02-19T10:35:40.258Z,9.61
2019-02-19T10:36:40.297Z,9.65
2019-02-19T10:37:40.259Z,9.65
2019-02-19T10:38:40.222Z,9.48
2019-02-19T10:39:40.225Z,9.47
2019-02-19T10:40:40.200Z,9.37
2019-02-19T10:41:40.200Z,9.36
2019-02-19T10:42:40.210Z,9.47
2019-02-19T10:43:40.178Z,9.46
2019-02-19T10:44:40.154Z,9.28
2019-02-19T10:45:40.154Z,9.28
2019-02-19T10:46:40.138Z,9.36
2019-02-19T10:47:40.126Z,9.29
2019-02-19T10:48:40.151Z,9.32
2019-02-19T10:49:40.115Z,9.31
2019-02-19T10:50:40.101Z,9.31
2019-02-19T10:51:40.076Z,9.44
2019-02-19T10:52:40.067Z,9.59
2019-02-19T10:53:40.054Z,9.89
2019-02-19T10:54:40.090Z,10.07
2019-02-19T10:55:40.031Z,10.35
2019-02-19T10:56:40.037Z,10.23
2019-02-19T10:57:40.010Z,10.22
2019-02-19T10:58:40.024Z,10.20
2019-02-19T10:59:39.991Z,10.05
2019-02-19T11:00:39.995Z,10.09
2019-02-19T11:01:40.008Z,10.09
2019-02-19T11:02:39.956Z,10.10
2019-02-19T11:03:39.944Z,10.17
2019-02-19T11:04:40.081Z,10.07
2019-02-19T11:05:39.920Z,10.13
2019-02-19T11:06:39.955Z,10.23
2019-02-19T11:07:39.915Z,10.28
2019-02-19T11:08:39.887Z,10.25
2019-02-19T11:09:39.873Z,10.25
2019-02-19T11:10:39.862Z,10.33
2019-02-19T11:11:39.851Z,10.22
2019-02-19T11:12:39.900Z,10.19
2019-02-19T11:13:39.840Z,10.05
2019-02-19T11:14:39.823Z,10.12
2019-02-19T11:15:39.809Z,10.01
2019-02-19T11:16:39.799Z,10.13
2019-02-19T11:17:39.785Z,10.16
2019-02-19T11:18:39.827Z,10.33
2019-02-19T11:19:39.763Z,10.12
2019-02-19T11:20:39.752Z,10.22
2019-02-19T11:21:39.738Z,10.15
2019-02-19T11:22:39.761Z,10.13
2019-02-19T11:23:39.720Z,9.95
2019-02-19T11:24:39.745Z,9.98
2019-02-19T11:25:39.706Z,10.04
2019-02-19T11:26:39.683Z,10.09
2019-02-19T11:27:39.671Z,10.04
2019-02-19T11:28:41.065Z,10.05
2019-02-19T11:29:39.650Z,10.09
2019-02-19T11:30:39.683Z,10.04
2019-02-19T11:31:39.645Z,9.92
2019-02-19T11:32:39.616Z,9.95
2019-02-19T11:33:39.614Z,9.86
2019-02-19T11:34:39.592Z,9.89
2019-02-19T11:35:39.580Z,9.87
2019-02-19T11:36:39.606Z,9.80
2019-02-19T11:37:39.568Z,9.83
2019-02-19T11:38:39.552Z,9.92
2019-02-19T11:39:39.534Z,9.94
2019-02-19T11:40:39.538Z,10.01
2019-02-19T11:41:39.514Z,10.05
2019-02-19T11:42:39.542Z,10.13
2019-02-19T11:43:39.490Z,10.17
2019-02-19T11:44:39.480Z,10.17
2019-02-19T11:45:39.468Z,10.07
2019-02-19T11:46:39.456Z,10.15
2019-02-19T11:47:39.444Z,10.13
2019-02-19T11:48:39.476Z,10.20
2019-02-19T11:49:39.424Z,10.30
2019-02-19T11:50:39.411Z,10.33
2019-02-19T11:51:39.402Z,10.09
2019-02-19T11:52:39.389Z,10.07
2019-02-19T11:53:39.378Z,10.09
2019-02-19T11:54:39.430Z,10.10
2019-02-19T11:55:39.363Z,10.09
2019-02-19T11:56:39.342Z,10.09
2019-02-19T11:57:39.337Z,10.02
2019-02-19T11:58:39.320Z,10.05
2019-02-19T11:59:39.319Z,10.04
2019-02-19T12:00:39.351Z,10.09
2019-02-19T12:01:39.289Z,10.02
2019-02-19T12:02:39.279Z,9.95
2019-02-19T12:03:39.265Z,9.97
2019-02-19T12:04:39.254Z,10.10
2019-02-19T12:05:39.241Z,10.10
2019-02-19T12:06:39.292Z,10.09
2019-02-19T12:07:39.220Z,10.12
2019-02-19T12:08:39.526Z,10.04
2019-02-19T12:09:39.200Z,9.98
2019-02-19T12:10:39.187Z,10.15
2019-02-19T12:11:39.253Z,10.16
2019-02-19T12:12:39.164Z,10.20
2019-02-19T12:13:39.153Z,10.22
2019-02-19T12:14:39.143Z,10.23
2019-02-19T12:15:39.141Z,10.16
2019-02-19T12:16:39.122Z,10.25
2019-02-19T12:17:39.160Z,10.19
2019-02-19T12:18:45.855Z,10.16
2019-02-19T12:19:40.092Z,10.05
2019-02-19T12:20:39.080Z,10.05
2019-02-19T12:21:39.063Z,10.07
2019-02-19T12:22:39.066Z,9.99
2019-02-19T12:23:39.075Z,9.97
2019-02-19T12:24:39.034Z,9.94
2019-02-19T12:25:39.031Z,9.95
2019-02-19T12:26:39.013Z,9.99
2019-02-19T12:27:38.997Z,10.05
2019-02-19T12:28:38.995Z,10.20
2019-02-19T12:29:39.009Z,10.09
2019-02-19T12:30:38.995Z,10.17
2019-02-19T12:31:38.951Z,10.25
2019-02-19T12:32:38.953Z,10.41
2019-02-19T12:33:38.931Z,10.40
2019-02-19T12:34:38.927Z,10.34
2019-02-19T12:35:38.938Z,10.40
2019-02-19T12:36:38.905Z,10.25
2019-02-19T12:37:38.883Z,10.12
2019-02-19T12:38:38.903Z,10.19
2019-02-19T12:39:38.865Z,10.22
2019-02-19T12:40:38.853Z,10.37
2019-02-19T12:41:38.949Z,10.40
2019-02-19T12:42:38.827Z,10.38
2019-02-19T12:43:38.816Z,10.44
2019-02-19T12:44:38.824Z,10.42
2019-02-19T12:45:38.796Z,10.40
2019-02-19T12:46:38.785Z,10.44
2019-02-19T12:47:38.819Z,10.37
2019-02-19T12:48:38.760Z,10.40
2019-02-19T12:49:38.749Z,10.35
2019-02-19T12:50:38.751Z,10.25
2019-02-19T12:51:38.728Z,10.33
2019-02-19T12:52:38.714Z,10.37
2019-02-19T12:53:38.794Z,10.30
2019-02-19T12:54:38.694Z,10.33
2019-02-19T12:55:38.681Z,10.42
2019-02-19T12:56:38.686Z,10.41
2019-02-19T12:57:38.660Z,10.34
2019-02-19T12:58:38.647Z,10.38
2019-02-19T12:59:38.676Z,10.37
2019-02-19T13:00:38.656Z,10.31
2019-02-19T13:01:38.615Z,10.34
2019-02-19T13:02:38.609Z,10.35
2019-02-19T13:03:38.590Z,10.41
2019-02-19T13:04:38.591Z,10.44
2019-02-19T13:05:38.568Z,10.53
2019-02-19T13:06:38.578Z,10.37
2019-02-19T13:07:38.546Z,10.33
2019-02-19T13:08:38.577Z,10.40
2019-02-19T13:09:38.522Z,10.37
2019-02-19T13:10:38.514Z,10.33
2019-02-19T13:11:38.500Z,10.48
2019-02-19T13:12:38.528Z,10.44
2019-02-19T13:13:38.479Z,10.42
2019-02-19T13:14:38.480Z,10.37